createdAt,value
2023-03-25T00:07:01.395Z,95818.03
2023-03-25T00:17:04.446Z,95823.75
2023-03-25T00:27:07.594Z,95814.09
2023-03-25T00:37:10.821Z,95801.42
2023-03-25T00:47:18.527Z,95785.78
2023-03-25T00:57:22.417Z,95770.36
2023-03-25T01:07:26.167Z,95756.02
2023-03-25T01:17:29.240Z,95750.40
2023-03-25T01:27:32.340Z,95748.44
2023-03-25T01:37:36.820Z,95751.72
2023-03-25T01:47:40.592Z,95744.92
2023-03-25T01:57:46.407Z,95733.08
2023-03-25T02:07:50.197Z,95725.35
2023-03-25T02:18:21.580Z,95723.40
2023-03-25T02:28:53.128Z,95736.45
2023-03-25T02:39:07.001Z,95735.11
2023-03-25T02:49:21.002Z,95740.44
2023-03-25T02:59:33.350Z,95732.45
2023-03-25T03:09:44.660Z,95738.80
2023-03-25T03:20:01.138Z,95744.20
2023-03-25T03:30:16.452Z,95747.72
2023-03-25T03:40:23.565Z,95755.55
2023-03-25T03:50:33.442Z,95768.07
2023-03-25T04:00:44.428Z,95775.80
2023-03-25T04:10:59.345Z,95785.10
2023-03-25T04:21:02.554Z,95777.67
2023-03-25T04:31:16.737Z,95785.95
2023-03-25T04:41:19.925Z,95793.74
2023-03-25T04:51:23.660Z,95790.42
2023-03-25T05:01:33.179Z,95796.76
2023-03-25T05:11:39.614Z,95811.04
2023-03-25T05:21:42.721Z,95818.05
2023-03-25T05:31:46.743Z,95832.71
2023-03-25T05:41:50.723Z,95847.67
2023-03-25T05:51:56.144Z,95850.45
2023-03-25T06:01:59.397Z,95852.70
2023-03-25T06:12:04.083Z,95862.61
2023-03-25T06:22:11.514Z,95873.20
2023-03-25T06:32:15.792Z,95885.91
2023-03-25T06:42:18.946Z,95892.15
2023-03-25T06:52:55.271Z,95904.21
2023-03-25T07:03:01.950Z,95902.92
2023-03-25T07:13:05.097Z,95900.05
2023-03-25T07:23:08.093Z,95900.63
2023-03-25T07:33:11.384Z,95894.70
2023-03-25T07:43:14.401Z,95893.48
2023-03-25T07:53:20.437Z,95896.77
2023-03-25T08:03:23.836Z,95897.08
2023-03-25T08:13:27.092Z,95891.09
2023-03-25T08:23:30.139Z,95889.84
2023-03-25T08:33:34.734Z,95887.91
2023-03-25T08:43:37.851Z,95898.77
2023-03-25T08:53:41.265Z,95899.28
2023-03-25T09:03:44.358Z,95892.95
2023-03-25T09:13:47.616Z,95886.64
2023-03-25T09:23:50.684Z,95876.13
2023-03-25T09:33:53.861Z,95862.22
2023-03-25T09:44:25.099Z,95849.13
2023-03-25T09:54:32.621Z,95832.69
2023-03-25T10:05:13.369Z,95819.89
2023-03-25T10:15:50.309Z,95804.13
2023-03-25T10:26:01.300Z,95788.45
2023-03-25T10:36:08.038Z,95780.02
2023-03-25T10:46:29.823Z,95769.81
2023-03-25T10:56:37.672Z,95758.65
2023-03-25T11:06:45.993Z,95736.80
2023-03-25T11:16:56.069Z,95728.73
2023-03-25T11:27:01.031Z,95731.77
2023-03-25T11:37:22.650Z,95726.05
2023-03-25T11:47:32.575Z,95713.41
2023-03-25T11:57:41.258Z,95704.73
2023-03-25T12:07:48.803Z,95707.18
2023-03-25T12:18:16.688Z,95700.74
2023-03-25T12:28:23.625Z,95694.25
2023-03-25T12:38:29.459Z,95696.38
2023-03-25T12:48:48.157Z,95692.19
2023-03-25T12:59:09.612Z,95697.89
2023-03-25T13:09:26.742Z,95731.99
2023-03-25T13:19:39.693Z,95771.05
2023-03-25T13:29:48.509Z,95780.09
2023-03-25T13:40:01.261Z,95770.13
2023-03-25T13:50:17.685Z,95758.91
2023-03-25T14:00:45.539Z,95762.67
2023-03-25T14:11:22.096Z,95761.31
2023-03-25T14:21:35.625Z,95754.71
2023-03-25T14:31:38.764Z,95743.40
2023-03-25T14:42:13.546Z,95740.06
2023-03-25T14:52:21.211Z,95729.36
2023-03-25T15:02:32.181Z,95727.55
2023-03-25T15:12:39.090Z,95727.35
2023-03-25T15:22:43.692Z,95729.50
2023-03-25T15:32:52.808Z,95738.45
2023-03-25T15:43:34.987Z,95742.41
2023-03-25T15:53:53.693Z,95747.66
2023-03-25T16:04:36.952Z,95747.54
2023-03-25T16:14:43.401Z,95745.27
2023-03-25T16:24:50.442Z,95742.77
2023-03-25T16:34:54.155Z,95750.59
2023-03-25T16:44:57.291Z,95763.28
2023-03-25T16:55:00.411Z,95769.67
2023-03-25T17:05:33.259Z,95772.15
2023-03-25T17:15:38.061Z,95795.00
2023-03-25T17:25:53.581Z,95796.41
2023-03-25T17:35:57.155Z,95793.11
2023-03-25T17:46:01.316Z,95805.84
2023-03-25T17:56:06.932Z,95812.17
2023-03-25T18:06:12.200Z,95811.55
2023-03-25T18:16:21.037Z,95814.16
2023-03-25T18:26:24.245Z,95819.00
2023-03-25T18:36:27.238Z,95809.14
2023-03-25T18:46:30.589Z,95820.59
2023-03-25T18:56:34.821Z,95832.30
2023-03-25T19:06:39.473Z,95836.02
2023-03-25T19:16:48.138Z,95845.55
2023-03-25T19:26:57.617Z,95847.63
2023-03-25T19:37:05.306Z,95858.05
2023-03-25T19:47:08.801Z,95861.14
2023-03-25T19:57:12.900Z,95862.47
2023-03-25T20:07:16.320Z,95859.05
2023-03-25T20:17:21.130Z,95855.98
2023-03-25T20:27:26.017Z,95850.59
2023-03-25T20:37:29.109Z,95847.14
2023-03-25T20:47:32.472Z,95846.45
2023-03-25T20:57:36.242Z,95847.70
2023-03-25T21:07:41.291Z,95856.36
2023-03-25T21:17:44.646Z,95861.13
2023-03-25T21:27:49.289Z,95865.70
2023-03-25T21:37:52.432Z,95859.98
2023-03-25T21:47:55.469Z,95862.79
2023-03-25T21:57:59.708Z,95861.58
2023-03-25T22:08:05.261Z,95876.69
2023-03-25T22:18:08.432Z,95885.37
2023-03-25T22:28:11.845Z,95880.52
2023-03-25T22:38:14.977Z,95882.44
2023-03-25T22:48:19.000Z,95887.09
2023-03-25T22:58:25.262Z,95883.41
2023-03-25T23:08:31.785Z,95881.92
2023-03-25T23:18:37.158Z,95888.91
2023-03-25T23:28:41.444Z,95889.63
2023-03-25T23:38:45.323Z,95889.96
2023-03-25T23:48:49.379Z,95889.77
2023-03-25T23:58:53.155Z,95890.77
